Time;durP1;ratioP1;P1;durP2;ratioP2;P2;SDS_P1;SDS_P2;PMS_P1;PMS_P2;Temp;Humidity;BMP_temperature;BMP_pressure;BME280_temperature;BME280_humidity;BME280_pressure;Samples;Min_cycle;Max_cycle;Signal;HPM_P1;HPM_P2
2022/05/06 00:00:07;;;;;;;8.00;5.18;;;14.40;47.40;;;;;;5059849;28;20060;-44
2022/05/06 00:02:35;;;;;;;7.60;4.57;;;14.40;47.40;;;;;;5056960;28;20056;-43
2022/05/06 00:05:03;;;;;;;10.27;4.65;;;14.40;47.50;;;;;;5057484;28;20060;-46
2022/05/06 00:07:32;;;;;;;7.82;4.82;;;14.40;47.50;;;;;;5060620;28;20052;-43
2022/05/06 00:10:01;;;;;;;5.47;4.25;;;14.30;47.60;;;;;;5060293;28;20415;-43
2022/05/06 00:12:30;;;;;;;8.70;5.38;;;14.30;47.80;;;;;;5056770;28;20488;-46
2022/05/06 00:14:57;;;;;;;10.13;5.68;;;14.30;48.00;;;;;;5056949;28;20056;-45
2022/05/06 00:17:25;;;;;;;10.55;5.10;;;14.30;48.00;;;;;;5059841;28;20052;-43
2022/05/06 00:19:52;;;;;;;10.52;5.13;;;14.20;48.00;;;;;;5058503;28;20060;-45
2022/05/06 00:22:20;;;;;;;6.95;4.53;;;14.20;48.00;;;;;;5057132;28;20051;-43
2022/05/06 00:24:51;;;;;;;9.57;4.53;;;14.10;48.00;;;;;;5059181;28;20048;-43
2022/05/06 00:27:18;;;;;;;7.38;4.90;;;14.10;48.00;;;;;;5060685;28;20056;-47
2022/05/06 00:29:46;;;;;;;7.85;4.70;;;14.10;48.10;;;;;;5060351;28;20431;-46
2022/05/06 00:32:13;;;;;;;8.00;5.07;;;14.00;48.20;;;;;;5058107;28;20044;-43
2022/05/06 00:34:41;;;;;;;7.65;4.82;;;14.00;48.30;;;;;;5059253;28;20500;-43
2022/05/06 00:37:08;;;;;;;8.15;4.90;;;14.00;48.30;;;;;;5060972;28;20064;-43
2022/05/06 00:39:36;;;;;;;7.18;4.68;;;14.00;48.40;;;;;;5061206;28;20060;-44
2022/05/06 00:42:06;;;;;;;6.63;4.90;;;14.00;48.50;;;;;;5058170;28;20053;-44
2022/05/06 00:44:33;;;;;;;8.02;4.95;;;13.90;48.60;;;;;;5059239;28;20052;-43
2022/05/06 00:47:02;;;;;;;8.90;4.88;;;13.90;48.70;;;;;;5061066;28;20064;-43
2022/05/06 00:49:29;;;;;;;8.75;5.43;;;13.90;48.70;;;;;;5058727;28;20055;-44
2022/05/06 00:51:57;;;;;;;7.55;5.30;;;13.80;48.90;;;;;;5057704;28;20052;-43
2022/05/06 00:54:25;;;;;;;10.50;5.40;;;13.80;48.90;;;;;;5059577;28;20744;-45
2022/05/06 00:56:54;;;;;;;5.90;4.43;;;13.80;49.00;;;;;;5061631;28;20059;-43
2022/05/06 00:59:23;;;;;;;8.63;5.20;;;13.80;49.10;;;;;;5061179;28;20495;-44
2022/05/06 01:01:50;;;;;;;11.02;5.30;;;13.80;49.10;;;;;;5058008;28;20051;-44
2022/05/06 01:04:18;;;;;;;11.98;6.20;;;13.70;49.00;;;;;;5059124;28;20101;-43
2022/05/06 01:06:47;;;;;;;7.30;5.32;;;13.70;49.20;;;;;;5059333;28;20052;-43
2022/05/06 01:09:16;;;;;;;9.15;5.65;;;13.60;49.20;;;;;;5058576;28;20067;-43
2022/05/06 01:11:44;;;;;;;9.68;5.40;;;13.60;49.30;;;;;;5057395;28;20056;-43
2022/05/06 01:14:12;;;;;;;8.93;5.30;;;13.60;49.30;;;;;;5059771;28;20060;-43
2022/05/06 01:16:41;;;;;;;7.95;5.43;;;13.50;49.30;;;;;;5061037;28;20049;-43
2022/05/06 01:19:10;;;;;;;7.93;5.22;;;13.50;49.40;;;;;;5057185;28;20064;-43
2022/05/06 01:21:44;;;;;;;15.13;5.00;;;13.50;49.30;;;;;;5057220;28;20056;-45
2022/05/06 01:24:12;;;;;;;9.07;5.53;;;13.40;49.40;;;;;;5060387;28;20048;-43
2022/05/06 01:26:53;;;;;;;8.35;5.47;;;13.50;49.40;;;;;;5058677;28;20061;-42
2022/05/06 01:29:22;;;;;;;11.25;6.75;;;13.40;49.60;;;;;;5060237;28;20059;-43
2022/05/06 01:31:50;;;;;;;7.78;5.88;;;13.40;49.60;;;;;;5058074;28;20057;-43
2022/05/06 01:34:19;;;;;;;10.57;5.43;;;13.40;49.70;;;;;;5058679;28;20048;-43
2022/05/06 01:36:52;;;;;;;10.85;5.72;;;13.30;49.70;;;;;;5060882;28;20057;-43
2022/05/06 01:39:24;;;;;;;9.68;6.22;;;13.30;49.80;;;;;;5054628;28;20060;-44
2022/05/06 01:41:55;;;;;;;9.57;5.95;;;13.30;50.00;;;;;;5057519;28;20056;-43
2022/05/06 01:44:26;;;;;;;10.02;5.40;;;13.30;50.00;;;;;;5060123;28;20061;-46
2022/05/06 01:46:58;;;;;;;7.78;5.60;;;13.20;50.00;;;;;;5060559;28;20491;-43
2022/05/06 01:49:27;;;;;;;7.50;5.20;;;13.20;50.10;;;;;;5062571;28;20053;-43
2022/05/06 01:51:58;;;;;;;9.00;5.90;;;13.20;50.20;;;;;;5062699;28;20052;-43
2022/05/06 01:54:27;;;;;;;9.77;5.70;;;13.20;50.30;;;;;;5062513;28;20755;-43
2022/05/06 01:56:54;;;;;;;7.57;5.28;;;13.10;50.20;;;;;;5063786;28;20530;-43
2022/05/06 01:59:22;;;;;;;9.40;5.60;;;13.20;50.30;;;;;;5063989;28;20089;-43
2022/05/06 02:01:50;;;;;;;7.85;6.03;;;13.10;50.30;;;;;;5060919;28;20416;-43
2022/05/06 02:07:02;;;;;;;9.43;6.40;;;13.10;50.50;;;;;;5069882;28;20063;-43
2022/05/06 02:09:31;;;;;;;13.23;6.45;;;13.10;50.40;;;;;;5063712;28;20059;-43
2022/05/06 02:11:58;;;;;;;8.27;5.40;;;13.00;50.50;;;;;;5060855;28;20053;-44
2022/05/06 02:14:25;;;;;;;9.82;5.82;;;13.00;50.50;;;;;;5062864;28;20049;-44
2022/05/06 02:16:53;;;;;;;8.07;5.88;;;13.00;50.60;;;;;;5063397;28;20056;-45
2022/05/06 02:19:20;;;;;;;10.23;6.18;;;13.00;50.60;;;;;;5061772;28;20083;-43
2022/05/06 02:21:48;;;;;;;9.18;6.10;;;12.90;50.60;;;;;;5060457;28;20519;-43
2022/05/06 02:24:15;;;;;;;10.38;6.68;;;12.90;50.60;;;;;;5060965;28;20056;-42
2022/05/06 02:26:44;;;;;;;9.27;6.57;;;12.90;50.70;;;;;;5061561;28;20324;-42
2022/05/06 02:29:12;;;;;;;14.35;6.40;;;12.90;50.80;;;;;;5063087;28;20049;-43
2022/05/06 02:34:24;;;;;;;10.15;6.55;;;12.80;50.90;;;;;;5066614;28;20059;-43
2022/05/06 02:36:52;;;;;;;8.75;6.60;;;12.80;50.90;;;;;;5063755;28;20496;-43
2022/05/06 02:39:19;;;;;;;7.55;5.63;;;12.80;51.00;;;;;;5063578;28;20071;-43
2022/05/06 02:41:48;;;;;;;11.50;6.10;;;12.80;51.00;;;;;;5060680;28;20056;-44
2022/05/06 02:44:16;;;;;;;9.82;5.80;;;12.80;51.20;;;;;;5062289;28;20053;-43
2022/05/06 02:50:07;;;;;;;12.88;6.47;;;12.70;51.30;;;;;;5757518;22;20059;-44
2022/05/06 02:52:34;;;;;;;10.25;6.22;;;12.70;51.10;;;;;;5057377;28;20412;-44
2022/05/06 02:55:01;;;;;;;11.90;6.30;;;12.70;51.20;;;;;;5063858;28;20067;-42
2022/05/06 02:57:30;;;;;;;9.65;6.38;;;12.70;51.30;;;;;;5058966;28;20407;-46
2022/05/06 02:59:58;;;;;;;15.98;7.05;;;12.70;51.40;;;;;;5062364;28;20048;-49
2022/05/06 03:02:25;;;;;;;12.77;7.30;;;12.60;51.50;;;;;;5059024;28;20419;-45
2022/05/06 03:04:53;;;;;;;8.98;5.97;;;12.60;51.60;;;;;;5060790;28;20063;-47
2022/05/06 03:07:20;;;;;;;9.15;5.88;;;12.60;51.60;;;;;;5062694;28;20056;-43
2022/05/06 03:09:47;;;;;;;10.93;6.35;;;12.50;51.50;;;;;;5061433;28;20064;-45
2022/05/06 03:12:17;;;;;;;14.05;6.80;;;12.50;51.60;;;;;;5063371;28;20075;-47
2022/05/06 03:14:46;;;;;;;14.48;7.15;;;12.50;51.80;;;;;;5062414;28;20052;-43
2022/05/06 03:17:14;;;;;;;10.55;7.18;;;12.50;51.80;;;;;;5062674;28;20053;-48
2022/05/06 03:19:41;;;;;;;12.43;7.22;;;12.50;51.90;;;;;;5059344;28;20052;-45
2022/05/06 03:22:09;;;;;;;12.82;6.97;;;12.40;51.90;;;;;;5062534;28;20668;-44
2022/05/06 03:24:37;;;;;;;12.93;7.32;;;12.40;51.90;;;;;;5062743;28;20499;-46
2022/05/06 03:27:59;;;;;;;10.70;6.57;;;12.40;52.00;;;;;;5062926;28;20049;-46
2022/05/06 03:29:54;;;;;;;9.73;6.68;;;12.30;51.90;;;;;;5062237;28;20562;-45
2022/05/06 03:32:22;;;;;;;10.32;6.93;;;12.30;52.00;;;;;;5062735;28;20056;-44
2022/05/06 03:34:50;;;;;;;12.23;7.20;;;12.30;52.00;;;;;;5061342;28;20048;-45
2022/05/06 03:37:17;;;;;;;12.13;8.07;;;12.30;52.10;;;;;;5060368;28;20076;-47
2022/05/06 03:39:45;;;;;;;10.05;6.68;;;12.30;52.10;;;;;;5061194;28;20488;-47
2022/05/06 03:42:13;;;;;;;14.15;6.55;;;12.30;52.10;;;;;;5060743;28;20603;-45
2022/05/06 03:44:41;;;;;;;12.85;6.97;;;12.20;52.10;;;;;;5059803;28;20053;-43
2022/05/06 03:47:10;;;;;;;10.50;6.57;;;12.20;52.20;;;;;;5062882;28;20645;-44
2022/05/06 03:49:37;;;;;;;13.90;7.88;;;12.20;52.30;;;;;;5070665;28;20048;-44
2022/05/06 03:52:04;;;;;;;12.00;6.63;;;12.10;52.30;;;;;;5082890;28;20418;-48
2022/05/06 03:54:33;;;;;;;16.67;9.38;;;12.10;52.30;;;;;;5082145;28;20055;-43
2022/05/06 03:57:00;;;;;;;20.17;11.05;;;12.10;52.40;;;;;;5082409;28;20513;-47
2022/05/06 03:59:28;;;;;;;16.33;9.60;;;12.10;52.50;;;;;;5081404;28;20079;-44
2022/05/06 04:01:56;;;;;;;13.10;7.80;;;12.10;52.50;;;;;;5081887;28;20437;-46
2022/05/06 04:04:26;;;;;;;10.80;7.18;;;12.10;52.60;;;;;;5080964;28;20055;-43
2022/05/06 04:06:54;;;;;;;13.45;7.85;;;12.10;52.70;;;;;;5081923;28;20491;-46
2022/05/06 04:09:21;;;;;;;11.43;6.97;;;12.00;52.70;;;;;;5081191;28;20577;-46
2022/05/06 04:11:49;;;;;;;9.27;6.47;;;12.00;52.70;;;;;;5082368;28;20052;-45
2022/05/06 04:14:16;;;;;;;11.48;7.10;;;12.00;52.70;;;;;;5081598;28;20483;-43
2022/05/06 04:16:44;;;;;;;11.02;7.40;;;12.00;52.70;;;;;;5080091;28;20056;-44
2022/05/06 04:19:11;;;;;;;15.70;7.65;;;12.00;52.70;;;;;;5075118;28;20059;-47
2022/05/06 04:24:25;;;;;;;10.65;6.78;;;12.00;53.00;;;;;;5088049;28;20055;-45
2022/05/06 04:26:52;;;;;;;11.77;7.82;;;12.00;53.00;;;;;;5081393;28;20071;-47
2022/05/06 04:29:20;;;;;;;16.15;8.45;;;12.00;53.00;;;;;;5081715;28;20052;-45
2022/05/06 04:31:47;;;;;;;12.60;8.07;;;11.90;53.00;;;;;;5082068;28;20392;-42
2022/05/06 04:34:14;;;;;;;12.75;8.27;;;11.90;53.10;;;;;;5080305;28;20052;-45
2022/05/06 04:36:43;;;;;;;12.35;7.85;;;11.90;53.20;;;;;;5082122;28;20518;-43
2022/05/06 04:39:11;;;;;;;13.60;7.82;;;11.90;53.20;;;;;;5081331;28;20052;-44
2022/05/06 04:41:38;;;;;;;15.68;8.98;;;11.90;53.30;;;;;;5082398;28;20052;-43
2022/05/06 04:44:06;;;;;;;10.43;6.90;;;11.90;53.40;;;;;;5081066;28;20052;-45
2022/05/06 04:46:33;;;;;;;12.85;7.18;;;11.90;53.40;;;;;;5081884;28;20063;-49
2022/05/06 04:49:00;;;;;;;11.70;7.53;;;11.90;53.40;;;;;;5079993;28;20051;-45
2022/05/06 04:51:28;;;;;;;11.25;7.40;;;11.90;53.50;;;;;;5081951;28;20056;-44
2022/05/06 04:53:57;;;;;;;12.35;7.10;;;11.90;53.50;;;;;;5081144;28;20502;-50
2022/05/06 04:56:24;;;;;;;13.48;7.95;;;11.90;53.60;;;;;;5080652;28;20498;-46
2022/05/06 04:58:52;;;;;;;13.00;8.30;;;11.90;53.60;;;;;;5081563;28;20060;-43
2022/05/06 05:01:19;;;;;;;11.38;7.57;;;12.00;53.70;;;;;;5078712;28;20059;-47
2022/05/06 05:03:46;;;;;;;12.82;7.57;;;12.00;53.80;;;;;;5071351;28;20052;-45
2022/05/06 05:06:14;;;;;;;10.93;7.97;;;12.00;53.80;;;;;;5081122;28;20055;-46
2022/05/06 05:08:42;;;;;;;11.60;8.10;;;12.00;53.90;;;;;;5081831;28;20060;-45
2022/05/06 05:11:11;;;;;;;13.88;8.75;;;12.00;53.90;;;;;;5079806;28;20048;-45
2022/05/06 05:13:39;;;;;;;13.40;8.63;;;12.00;54.00;;;;;;5079841;28;20056;-46
2022/05/06 05:16:07;;;;;;;13.10;8.40;;;12.00;53.90;;;;;;5081436;28;20048;-47
2022/05/06 05:18:34;;;;;;;17.48;9.10;;;12.00;53.90;;;;;;5079304;28;20495;-49
2022/05/06 05:21:02;;;;;;;15.40;10.68;;;12.10;54.10;;;;;;5079941;28;20403;-44
2022/05/06 05:23:31;;;;;;;18.10;11.43;;;12.10;54.20;;;;;;5084820;28;20056;-45
2022/05/06 05:25:59;;;;;;;20.55;11.10;;;12.10;54.30;;;;;;5083620;28;20056;-46
2022/05/06 05:28:27;;;;;;;21.55;11.02;;;12.10;54.50;;;;;;5085037;28;20075;-44
2022/05/06 05:30:55;;;;;;;18.33;10.35;;;12.20;54.80;;;;;;5083922;28;20575;-43
2022/05/06 05:33:22;;;;;;;15.57;9.68;;;12.20;54.80;;;;;;5082668;28;20074;-46
2022/05/06 05:35:50;;;;;;;17.75;9.88;;;12.20;54.80;;;;;;5084130;28;20407;-45
2022/05/06 05:38:17;;;;;;;14.77;8.98;;;12.30;55.00;;;;;;5084280;28;20052;-43
2022/05/06 05:40:45;;;;;;;13.95;9.15;;;12.30;55.00;;;;;;5084499;28;20399;-48
2022/05/06 05:48:19;;;;;;;13.88;8.23;;;12.40;55.00;;;;;;5083853;28;20062;-43
2022/05/06 05:48:46;;;;;;;14.55;9.38;;;12.50;55.10;;;;;;5089224;28;20066;-44
2022/05/06 05:51:14;;;;;;;15.38;10.45;;;12.60;55.10;;;;;;5084630;28;20056;-44
2022/05/06 05:53:42;;;;;;;16.95;9.93;;;12.60;55.20;;;;;;5084759;28;20063;-49
2022/05/06 05:56:10;;;;;;;21.40;11.82;;;12.70;55.30;;;;;;5084662;28;20517;-46
2022/05/06 05:58:37;;;;;;;16.50;10.07;;;12.80;55.50;;;;;;5084176;28;20056;-48
2022/05/06 06:01:06;;;;;;;16.88;9.95;;;12.80;55.50;;;;;;5084364;28;20052;-47
2022/05/06 06:03:33;;;;;;;18.10;10.27;;;12.90;55.80;;;;;;5082551;28;20419;-45
2022/05/06 06:06:01;;;;;;;20.02;9.63;;;13.00;55.80;;;;;;5084680;28;20051;-43
2022/05/06 06:08:28;;;;;;;19.40;10.88;;;13.00;55.80;;;;;;5084674;28;20063;-43
2022/05/06 06:10:56;;;;;;;18.50;11.88;;;13.10;55.90;;;;;;5084874;28;20407;-44
2022/05/06 06:13:23;;;;;;;23.45;15.20;;;13.20;55.90;;;;;;5084078;28;20070;-44
2022/05/06 06:15:50;;;;;;;22.17;13.82;;;13.20;55.90;;;;;;5083966;28;20067;-48
2022/05/06 06:18:24;;;;;;;25.83;15.55;;;13.30;56.30;;;;;;5082931;28;20060;-47
2022/05/06 06:20:51;;;;;;;24.30;15.27;;;13.40;56.60;;;;;;5084094;28;20059;-45
2022/05/06 06:23:20;;;;;;;28.10;15.13;;;13.50;56.60;;;;;;5083758;28;20411;-46
2022/05/06 06:25:47;;;;;;;15.68;11.07;;;13.50;56.60;;;;;;5083420;28;20056;-45
2022/05/06 06:28:15;;;;;;;18.70;10.65;;;13.60;56.40;;;;;;5083017;28;20074;-48
2022/05/06 06:30:44;;;;;;;20.05;10.88;;;13.60;56.00;;;;;;5083083;28;20483;-48
2022/05/06 06:33:11;;;;;;;18.35;12.23;;;13.60;55.80;;;;;;5079450;28;20056;-44
2022/05/06 06:35:40;;;;;;;17.85;12.27;;;13.60;55.70;;;;;;5083993;28;20052;-47
2022/05/06 06:38:07;;;;;;;21.90;13.90;;;13.70;55.80;;;;;;5081244;28;20066;-46
2022/05/06 06:40:35;;;;;;;29.35;15.70;;;13.70;56.00;;;;;;5081422;28;20486;-45
2022/05/06 06:43:03;;;;;;;23.40;14.25;;;13.80;56.40;;;;;;5080448;28;20411;-45
2022/05/06 06:45:31;;;;;;;20.75;12.55;;;13.80;56.60;;;;;;5082177;28;21094;-47
2022/05/06 06:47:59;;;;;;;24.95;16.42;;;13.90;56.40;;;;;;5081374;28;20914;-47
2022/05/06 06:50:27;;;;;;;24.08;14.70;;;13.90;56.40;;;;;;5081190;28;20048;-46
2022/05/06 06:52:56;;;;;;;28.35;16.65;;;14.00;56.00;;;;;;5083169;28;20055;-46
2022/05/06 06:55:24;;;;;;;24.77;15.32;;;14.10;56.00;;;;;;5082900;28;20064;-46
2022/05/06 06:57:51;;;;;;;23.92;15.43;;;14.10;55.80;;;;;;5083057;28;20090;-45
2022/05/06 07:00:20;;;;;;;31.77;15.75;;;14.20;55.80;;;;;;5083113;28;20055;-45
2022/05/06 07:02:48;;;;;;;24.33;15.98;;;14.20;55.80;;;;;;5082612;28;20064;-45
2022/05/06 07:05:15;;;;;;;23.05;15.25;;;14.30;55.80;;;;;;5083068;28;20430;-46
2022/05/06 07:13:14;;;;;;;31.17;16.92;;;14.50;55.90;;;;;;5088903;28;20518;-45
2022/05/06 07:15:41;;;;;;;26.13;15.43;;;14.50;55.60;;;;;;5083130;28;20048;-44
2022/05/06 07:18:09;;;;;;;23.13;12.63;;;14.60;55.50;;;;;;5081417;28;20557;-47
2022/05/06 07:20:36;;;;;;;22.33;12.60;;;14.70;54.50;;;;;;5082868;28;20056;-48
2022/05/06 07:23:05;;;;;;;24.27;14.27;;;14.70;53.90;;;;;;5082824;28;20063;-44
2022/05/06 07:25:33;;;;;;;26.00;12.60;;;14.80;54.40;;;;;;5082325;28;20063;-48
2022/05/06 07:28:01;;;;;;;20.90;12.30;;;14.90;53.40;;;;;;5083396;28;20890;-44
2022/05/06 07:30:28;;;;;;;23.73;12.80;;;14.90;53.50;;;;;;5083049;28;20491;-49
2022/05/06 07:32:56;;;;;;;20.35;11.70;;;15.00;54.00;;;;;;5082314;28;20067;-45
2022/05/06 07:35:24;;;;;;;18.63;11.00;;;15.10;53.40;;;;;;5082250;28;20055;-44
2022/05/06 07:37:51;;;;;;;19.60;11.38;;;15.10;53.10;;;;;;5081236;28;20109;-44
2022/05/06 07:40:19;;;;;;;15.98;9.65;;;15.20;52.80;;;;;;5082523;28;20384;-45
2022/05/06 07:42:50;;;;;;;14.65;8.75;;;15.30;52.20;;;;;;5082577;28;20056;-44
2022/05/06 07:45:18;;;;;;;19.55;10.32;;;15.40;51.60;;;;;;5080421;28;20051;-43
2022/05/06 07:47:45;;;;;;;21.85;11.80;;;15.50;51.50;;;;;;5060384;28;20066;-46
2022/05/06 07:50:13;;;;;;;16.98;10.57;;;15.50;51.70;;;;;;5071525;28;20063;-43
2022/05/06 07:52:41;;;;;;;16.05;10.05;;;15.60;51.80;;;;;;5070926;28;20063;-46
2022/05/06 07:55:10;;;;;;;14.63;6.53;;;15.70;51.60;;;;;;5070135;28;20058;-47
2022/05/06 07:57:37;;;;;;;14.40;8.13;;;15.80;51.10;;;;;;5070843;28;20063;-46
2022/05/06 08:00:07;;;;;;;14.55;8.80;;;15.80;51.00;;;;;;5082172;28;20063;-46
2022/05/06 08:05:22;;;;;;;15.90;7.65;;;16.00;50.30;;;;;;5086448;28;20498;-46
2022/05/06 08:07:49;;;;;;;11.90;6.60;;;16.10;50.20;;;;;;5054632;28;20063;-43
2022/05/06 08:10:17;;;;;;;10.98;6.43;;;16.10;50.10;;;;;;5080963;28;20071;-45
2022/05/06 08:12:44;;;;;;;11.82;7.70;;;16.20;49.70;;;;;;5079891;28;20054;-43
2022/05/06 08:15:13;;;;;;;12.48;6.55;;;16.20;49.90;;;;;;5077971;28;20044;-47
2022/05/06 08:17:41;;;;;;;9.35;5.03;;;16.40;50.00;;;;;;5081696;28;20048;-45
2022/05/06 08:20:09;;;;;;;9.80;4.90;;;16.40;49.40;;;;;;5078641;28;20063;-44
2022/05/06 08:22:37;;;;;;;8.80;5.28;;;16.50;49.10;;;;;;5073711;28;20709;-42
2022/05/06 08:25:05;;;;;;;8.30;4.43;;;16.60;49.40;;;;;;5077777;28;20072;-49
2022/05/06 08:27:37;;;;;;;7.90;4.63;;;16.60;49.20;;;;;;5081312;28;20056;-44
2022/05/06 08:30:06;;;;;;;13.15;4.75;;;16.70;48.60;;;;;;5072576;28;20051;-46
2022/05/06 08:32:35;;;;;;;6.88;4.15;;;16.80;48.30;;;;;;5070132;28;20051;-45
2022/05/06 08:35:03;;;;;;;19.95;4.60;;;16.90;48.40;;;;;;5066186;28;20630;-44
2022/05/06 08:37:39;;;;;;;9.10;3.85;;;17.00;47.50;;;;;;5069085;28;20414;-44
2022/05/06 08:40:08;;;;;;;5.68;3.00;;;17.10;46.50;;;;;;5074271;28;20048;-47
2022/05/06 08:42:36;;;;;;;7.50;3.42;;;17.10;46.00;;;;;;5070125;28;20067;-46
2022/05/06 08:50:52;;;;;;;5.80;2.88;;;17.40;45.90;;;;;;5079811;28;20442;-45
2022/05/06 08:53:21;;;;;;;8.45;2.45;;;17.40;45.50;;;;;;5073781;28;20055;-43
2022/05/06 08:55:50;;;;;;;7.30;3.33;;;17.50;45.60;;;;;;5080769;28;20052;-45
2022/05/06 08:58:18;;;;;;;10.07;2.95;;;17.60;45.70;;;;;;5079423;28;20059;-43
2022/05/06 09:00:46;;;;;;;6.45;3.33;;;17.70;45.30;;;;;;5079353;28;20052;-45
2022/05/06 09:03:17;;;;;;;9.77;3.80;;;17.80;45.30;;;;;;5071583;28;20052;-44
2022/05/06 09:05:52;;;;;;;8.70;3.33;;;17.80;44.00;;;;;;5080258;28;20048;-48
2022/05/06 09:08:20;;;;;;;8.95;3.97;;;17.90;44.00;;;;;;5080467;28;20063;-45
2022/05/06 09:11:01;;;;;;;6.60;3.63;;;18.00;43.50;;;;;;5076642;28;20067;-47
2022/05/06 09:13:28;;;;;;;8.85;3.63;;;18.10;43.50;;;;;;5079027;28;20514;-46
2022/05/06 09:19:11;;;;;;;6.30;3.05;;;18.20;44.00;;;;;;5080407;28;20059;-43
2022/05/06 09:21:39;;;;;;;7.32;4.00;;;18.30;41.80;;;;;;5076985;28;20047;-49
2022/05/06 09:24:17;;;;;;;13.90;4.00;;;18.30;41.90;;;;;;5080594;28;20055;-44
2022/05/06 09:26:57;;;;;;;6.70;3.97;;;18.30;41.50;;;;;;5079695;28;20056;-43
2022/05/06 09:29:29;;;;;;;11.10;3.95;;;18.40;41.60;;;;;;5080759;28;20052;-47
2022/05/06 09:31:57;;;;;;;8.93;3.47;;;18.50;41.20;;;;;;5077182;28;20062;-45
2022/05/06 09:34:29;;;;;;;6.63;3.80;;;18.50;42.20;;;;;;5078695;28;20056;-43
2022/05/06 09:36:56;;;;;;;12.02;3.88;;;18.60;42.00;;;;;;5079995;28;21365;-46
2022/05/06 09:39:24;;;;;;;10.85;3.38;;;18.70;41.60;;;;;;5077093;28;20067;-45
2022/05/06 09:42:03;;;;;;;13.15;4.35;;;18.70;40.60;;;;;;5076967;28;20052;-43
2022/05/06 09:44:31;;;;;;;11.68;5.63;;;18.80;39.10;;;;;;5079814;28;20522;-48
2022/05/06 09:47:10;;;;;;;6.55;4.28;;;18.80;39.60;;;;;;5077173;28;20056;-44
2022/05/06 09:49:41;;;;;;;12.40;4.38;;;18.90;40.10;;;;;;5079675;28;20059;-47
2022/05/06 09:52:12;;;;;;;13.73;4.20;;;19.00;40.90;;;;;;5076469;28;20055;-47
2022/05/06 09:54:42;;;;;;;6.95;4.15;;;19.00;41.10;;;;;;5080720;28;20487;-45
2022/05/06 09:57:11;;;;;;;8.95;5.05;;;19.10;41.30;;;;;;5080102;28;20047;-45
2022/05/06 09:59:39;;;;;;;10.60;5.35;;;19.20;40.50;;;;;;5080401;28;20062;-44
2022/05/06 10:02:08;;;;;;;10.18;5.30;;;19.30;41.20;;;;;;5079822;28;20056;-44
2022/05/06 10:04:35;;;;;;;8.02;4.28;;;19.30;41.00;;;;;;5077192;28;20529;-45
2022/05/06 10:07:09;;;;;;;9.38;4.95;;;19.40;41.40;;;;;;5080921;28;20048;-44
2022/05/06 10:09:45;;;;;;;8.77;4.93;;;19.50;41.30;;;;;;5082970;28;20525;-44
2022/05/06 10:12:16;;;;;;;11.75;5.13;;;19.50;40.70;;;;;;5081650;28;20056;-45
2022/05/06 10:14:45;;;;;;;8.32;4.68;;;19.60;40.90;;;;;;5077336;28;20057;-45
2022/05/06 10:17:12;;;;;;;8.27;5.00;;;19.60;41.20;;;;;;5063069;28;20059;-45
2022/05/06 10:19:46;;;;;;;7.18;5.10;;;19.60;41.20;;;;;;5076660;28;20411;-46
2022/05/06 10:22:15;;;;;;;11.45;5.53;;;19.70;41.30;;;;;;5083762;28;20406;-45
2022/05/06 10:24:49;;;;;;;9.52;5.50;;;19.70;41.00;;;;;;5083491;28;20399;-46
2022/05/06 10:32:25;;;;;;;10.43;5.03;;;19.70;41.00;;;;;;5073031;28;20059;-46
2022/05/06 10:33:15;;;;;;;9.82;5.10;;;19.90;41.40;;;;;;5070705;28;20068;-43
2022/05/06 10:35:44;;;;;;;11.15;5.55;;;19.90;41.10;;;;;;5070999;28;20283;-44
2022/05/06 10:38:24;;;;;;;11.50;4.60;;;20.00;40.80;;;;;;5073295;28;20048;-43
2022/05/06 10:40:54;;;;;;;6.55;3.55;;;20.10;41.30;;;;;;5074659;28;20462;-43
2022/05/06 10:43:50;;;;;;;5.68;3.78;;;20.20;41.60;;;;;;5076389;28;20483;-44
2022/05/06 10:46:35;;;;;;;7.20;4.18;;;20.20;40.60;;;;;;5070558;28;20056;-44
2022/05/06 10:49:20;;;;;;;;;;;20.30;40.10;;;;;;5067576;28;20060;-46
2022/05/06 10:51:48;;;;;;;6.38;3.20;;;20.40;40.70;;;;;;5070886;28;19931;-46
2022/05/06 10:54:17;;;;;;;7.43;4.38;;;20.50;40.20;;;;;;5074827;28;20110;-43
2022/05/06 10:56:45;;;;;;;7.65;4.47;;;20.50;39.50;;;;;;5071260;28;20043;-46
2022/05/06 10:59:12;;;;;;;13.52;6.63;;;20.50;38.30;;;;;;5071636;28;20055;-46
2022/05/06 11:01:39;;;;;;;5.93;3.53;;;20.50;38.90;;;;;;5070689;28;20055;-43
2022/05/06 11:04:07;;;;;;;7.88;3.88;;;20.40;38.90;;;;;;5071083;28;20052;-47
2022/05/06 11:06:34;;;;;;;7.45;3.88;;;20.40;39.00;;;;;;5070015;28;20051;-45
2022/05/06 11:09:02;;;;;;;7.75;4.00;;;20.40;39.30;;;;;;5071667;28;20706;-44
2022/05/06 11:11:34;;;;;;;10.40;4.28;;;20.40;39.20;;;;;;5080291;28;20419;-47
2022/05/06 11:14:19;;;;;;;10.75;3.92;;;20.40;38.30;;;;;;5082585;28;20055;-44
2022/05/06 11:16:47;;;;;;;7.05;3.40;;;20.50;38.80;;;;;;5080396;28;20063;-43
2022/05/06 11:19:33;;;;;;;6.22;3.63;;;20.60;39.10;;;;;;5080716;28;20063;-43
2022/05/06 11:22:07;;;;;;;5.22;3.20;;;20.60;39.20;;;;;;5080226;28;20056;-44
2022/05/06 11:24:35;;;;;;;5.95;3.28;;;20.70;38.90;;;;;;5082467;28;20048;-47
2022/05/06 11:27:14;;;;;;;8.90;4.60;;;20.80;39.20;;;;;;5079095;28;20677;-43
2022/05/06 11:29:48;;;;;;;8.15;4.13;;;20.80;37.10;;;;;;5082445;28;20052;-45
2022/05/06 11:32:15;;;;;;;;;;;20.70;37.20;;;;;;5074815;28;20055;-45
2022/05/06 11:34:48;;;;;;;4.40;3.13;;;20.80;37.80;;;;;;5071234;28;19924;-46
2022/05/06 11:37:22;;;;;;;5.70;3.30;;;20.80;38.50;;;;;;5060056;28;20052;-44
2022/05/06 11:39:50;;;;;;;6.45;3.55;;;20.80;38.20;;;;;;5060860;28;20075;-49
2022/05/06 11:42:25;;;;;;;5.90;3.30;;;20.80;38.30;;;;;;5069991;28;20044;-46
2022/05/06 11:47:44;;;;;;;5.78;2.78;;;21.00;38.10;;;;;;5086691;28;20522;-50
2022/05/06 11:50:11;;;;;;;6.38;2.83;;;21.10;38.40;;;;;;5081476;28;20063;-43
2022/05/06 11:52:39;;;;;;;8.27;3.65;;;21.10;38.00;;;;;;5079588;28;20056;-48
2022/05/06 11:55:08;;;;;;;10.25;3.45;;;21.20;36.80;;;;;;5078440;28;20059;-47
2022/05/06 11:57:40;;;;;;;6.38;2.90;;;21.20;37.50;;;;;;5081892;28;20518;-43
2022/05/06 12:00:09;;;;;;;8.73;3.10;;;21.30;37.60;;;;;;5082649;28;20051;-44
2022/05/06 12:02:36;;;;;;;6.80;3.67;;;21.30;36.60;;;;;;5077408;28;20059;-45
2022/05/06 12:05:13;;;;;;;5.03;2.90;;;21.30;35.70;;;;;;5079249;28;20483;-45
2022/05/06 12:07:41;;;;;;;7.85;2.80;;;21.30;36.60;;;;;;5082120;28;20398;-46
2022/05/06 12:10:10;;;;;;;8.82;3.05;;;21.40;36.60;;;;;;5081988;28;20063;-44
2022/05/06 12:15:32;;;;;;;10.48;3.00;;;21.40;36.70;;;;;;5053642;27;20652;-44
2022/05/06 12:18:04;;;;;;;6.93;3.40;;;21.50;36.10;;;;;;5057859;28;20507;-45
2022/05/06 12:20:33;;;;;;;4.20;2.60;;;21.60;35.60;;;;;;5058524;28;20060;-43
2022/05/06 12:23:01;;;;;;;6.65;2.30;;;21.60;36.00;;;;;;5052996;28;20377;-46
2022/05/06 12:25:29;;;;;;;8.93;3.05;;;21.70;36.10;;;;;;5059097;28;20059;-44
2022/05/06 12:28:07;;;;;;;5.93;2.67;;;21.60;36.20;;;;;;5057561;28;20076;-44
2022/05/06 12:30:37;;;;;;;7.03;2.65;;;21.70;35.50;;;;;;5056500;28;20068;-45
2022/05/06 12:33:07;;;;;;;2.65;2.30;;;21.80;35.90;;;;;;5051739;28;20410;-47
2022/05/06 12:35:56;;;;;;;5.82;2.28;;;21.80;36.10;;;;;;5052128;28;20540;-46
2022/05/06 12:38:23;;;;;;;9.90;2.75;;;21.90;36.50;;;;;;5057186;28;20063;-48
2022/05/06 12:40:52;;;;;;;6.00;2.30;;;22.00;34.90;;;;;;5058239;28;20064;-45
2022/05/06 12:43:26;;;;;;;5.90;2.80;;;22.00;36.00;;;;;;5056778;28;20060;-45
2022/05/06 12:45:59;;;;;;;5.93;2.70;;;22.00;35.30;;;;;;5056778;28;20431;-45
2022/05/06 12:51:11;;;;;;;10.07;4.70;;;22.20;36.00;;;;;;5063417;28;20048;-43
2022/05/06 12:53:38;;;;;;;10.95;3.50;;;22.20;35.00;;;;;;5054760;28;20067;-43
2022/05/06 12:56:06;;;;;;;4.43;2.75;;;22.20;35.00;;;;;;5052036;28;20496;-47
2022/05/06 12:58:34;;;;;;;9.52;5.03;;;22.20;34.90;;;;;;5047778;28;20720;-48
2022/05/06 13:01:05;;;;;;;5.32;2.65;;;22.20;34.80;;;;;;5045621;28;20063;-45
2022/05/06 13:03:33;;;;;;;5.10;2.90;;;22.20;34.50;;;;;;5049619;28;20059;-47
2022/05/06 13:06:00;;;;;;;5.00;2.38;;;22.20;34.10;;;;;;5048280;28;20472;-44
2022/05/06 13:08:28;;;;;;;6.32;2.58;;;22.20;34.80;;;;;;5045847;28;20500;-45
2022/05/06 13:10:55;;;;;;;9.18;3.38;;;22.20;34.60;;;;;;5043476;28;20057;-48
2022/05/06 13:13:22;;;;;;;4.75;2.42;;;22.20;34.10;;;;;;5047800;28;20063;-45
2022/05/06 13:15:50;;;;;;;7.80;3.95;;;22.20;34.60;;;;;;5051483;28;20511;-46
2022/05/06 13:18:19;;;;;;;6.95;3.70;;;22.20;34.50;;;;;;5053326;28;20075;-43
2022/05/06 13:20:46;;;;;;;6.80;3.38;;;22.20;35.80;;;;;;5054896;28;20060;-46
2022/05/06 13:23:14;;;;;;;4.97;2.80;;;22.30;34.70;;;;;;5054941;28;20131;-48
2022/05/06 13:25:41;;;;;;;8.52;2.72;;;22.30;35.00;;;;;;5046612;28;20049;-45
2022/05/06 13:28:09;;;;;;;8.50;3.58;;;22.40;34.90;;;;;;5039844;28;20049;-45
2022/05/06 13:30:36;;;;;;;10.75;7.00;;;22.50;34.80;;;;;;5042488;28;20053;-45
2022/05/06 13:33:04;;;;;;;5.10;2.92;;;22.50;34.10;;;;;;5039828;28;20057;-45